Colombo Express — DIHC — position and weather

sailwx.info

Track history (hours):
 
Tides and Currents Weather Stations Pressure Air Temp Water Temp Dewpoint Dewpoint Depression Visibility Wind Speed Wind Dir Waves Ship Positions

Colombo Express

Last reported at 2016-Dec-08 04:08 UTC. Time now 2016-Dec-08 05:58 UTC.
Position N 53°39' E 005°19'.

Length 335.5 m; beam 42.8 m; draft 14.6 m.

Type: Ship. MMSI: 211433000.

Date/timePositionNaut miles runAvg speedWind from/ knotsBaromVisibWave heightAir tempDewpointWater temp
2016-Dec-08 04:08N 53°39' E 005°19'2614.0
2016-Dec-08 02:16N 53°45' E 006°01'6413.5
2016-Dec-07 21:33N 54°02' E 007°46'1514.6
2016-Dec-07 20:33N 54°01' E 008°11'1515.6
2016-Dec-07 19:34N 53°58' E 008°36'1312.5
2016-Dec-07 18:34N 53°51' E 008°54'1110.9
2016-Dec-07 17:33N 53°53' E 009°12'1111.3
2016-Dec-07 16:33N 53°45' E 009°25'1010.0
2016-Dec-07 15:34N 53°36' E 009°35'9 8.7
2016-Dec-07 14:33N 53°33' E 009°48'5 5.4
2016-Dec-07 13:33N 53°30' E 009°56'0 0.1
2016-Dec-07 12:33N 53°30' E 009°56'0 0.0
2016-Dec-07 11:33N 53°30' E 009°56'0 0.0
2016-Dec-07 10:33N 53°30' E 009°56'0 0.0
2016-Dec-07 09:33N 53°30' E 009°56'0 0.0
2016-Dec-07 08:33N 53°30' E 009°56'0 0.0
2016-Dec-07 07:33N 53°30' E 009°56'0 0.0
2016-Dec-07 06:33N 53°30' E 009°56'0 0.0
2016-Dec-07 05:33N 53°30' E 009°56'0 0.0
2016-Dec-07 04:33N 53°30' E 009°56'0 0.0
2016-Dec-07 03:33N 53°30' E 009°56'0 0.0
2016-Dec-07 02:33N 53°30' E 009°56'0 0.0
2016-Dec-07 01:33N 53°30' E 009°56'0 0.0
2016-Dec-07 00:33N 53°30' E 009°56'0 0.0
2016-Dec-06 23:33N 53°30' E 009°56'0 0.0
2016-Dec-06 22:33N 53°30' E 009°56'0 0.0
2016-Dec-06 21:33N 53°30' E 009°56'0 0.0
2016-Dec-06 20:33N 53°30' E 009°56'0 0.0
2016-Dec-06 18:33N 53°30' E 009°56'0 0.0
2016-Dec-06 17:30N 53°30' E 009°56'0 0.0
2016-Dec-06 16:33N 53°30' E 009°56'0 0.0
2016-Dec-06 15:33N 53°30' E 009°56'0 0.0
2016-Dec-06 14:33N 53°30' E 009°56'0 0.0
2016-Dec-06 13:33N 53°30' E 009°56'0 0.0
2016-Dec-06 12:33N 53°30' E 009°56'0 0.0
2016-Dec-06 11:33N 53°30' E 009°56'0 0.0
2016-Dec-06 10:33N 53°30' E 009°56'0 0.0
2016-Dec-06 09:33N 53°30' E 009°56'0 0.0
2016-Dec-06 08:33N 53°30' E 009°56'0 0.0
2016-Dec-06 07:33N 53°30' E 009°56'0 0.0
2016-Dec-06 06:30N 53°30' E 009°56'0 0.0
2016-Dec-06 05:33N 53°30' E 009°56'0 0.0
2016-Dec-06 04:33N 53°30' E 009°56'0 0.0
2016-Dec-06 03:33N 53°30' E 009°56'0 0.0
2016-Dec-06 02:33N 53°30' E 009°56'0 0.0
2016-Dec-06 01:33N 53°30' E 009°56'0 0.0
2016-Dec-06 00:33N 53°30' E 009°56'0 0.0
2016-Dec-05 23:33N 53°30' E 009°56'0 0.0
2016-Dec-05 22:33N 53°30' E 009°56'0 0.0
2016-Dec-05 21:33N 53°30' E 009°56'0 0.0
2016-Dec-05 20:34N 53°30' E 009°56'1 1.5
2016-Dec-05 19:34N 53°32' E 009°56'9 9.5
2016-Dec-05 18:34N 53°34' E 009°41'1212.5
2016-Dec-05 17:33N 53°44' E 009°27'1514.7
2016-Dec-05 16:33N 53°53' E 009°08'1414.1
2016-Dec-05 15:33N 53°52' E 008°44'1615.8
2016-Dec-05 14:33N 53°59' E 008°21'1111.0
2016-Dec-05 13:34N 53°59' E 008°02'5 5.0
2016-Dec-05 12:33N 53°58' E 007°53'10 9.8
2016-Dec-05 11:33N 53°56' E 007°37'1110.2
2016-Dec-05 10:31N 53°53' E 007°20'19 9.9
2016-Dec-05 08:33N 53°49' E 006°48'9 9.5
2016-Dec-05 07:33N 53°47' E 006°32'1310.8
2016-Dec-05 06:22N 53°43' E 006°11'911.7
2016-Dec-05 05:33N 53°40' E 005°56'1513.0
2016-Dec-05 04:26N 53°36' E 005°33'1213.7
2016-Dec-05 03:33N 53°31' E 005°14'1413.6
2016-Dec-05 02:33N 53°26' E 004°53'1313.0
2016-Dec-05 01:33N 53°18' E 004°36'1414.2
2016-Dec-05 00:33N 53°05' E 004°26'1414.1
2016-Dec-04 23:33N 52°52' E 004°15'1414.0
2016-Dec-04 22:34N 52°41' E 004°02'1414.0
2016-Dec-04 21:33N 52°28' E 003°54'1514.8
2016-Dec-04 20:33N 52°13' E 003°54'1313.1
2016-Dec-04 19:34N 52°00' E 003°59'2 1.9
2016-Dec-04 18:33N 51°59' E 004°00'2 1.7
2016-Dec-04 17:33N 51°57' E 003°59'0 0.0
2016-Dec-04 16:32N 51°57' E 003°59'0 0.0
2016-Dec-04 15:29N 51°57' E 003°59'0 0.0
2016-Dec-04 14:29N 51°57' E 003°59'0 0.0
2016-Dec-04 13:32N 51°57' E 003°59'0 0.0
2016-Dec-04 12:32N 51°57' E 003°59'0 0.0
2016-Dec-04 11:32N 51°57' E 003°59'0 0.0
2016-Dec-04 10:32N 51°57' E 003°59'0 0.0
2016-Dec-04 09:32N 51°57' E 003°59'0 0.0
2016-Dec-04 08:32N 51°57' E 003°59'0 0.0
2016-Dec-04 07:32N 51°57' E 003°59'0 0.0
2016-Dec-04 06:32N 51°57' E 003°59'0 0.0
2016-Dec-04 05:32N 51°57' E 003°59'0 0.0
2016-Dec-04 04:32N 51°57' E 003°59'0 0.0
2016-Dec-04 03:32N 51°57' E 003°59'0 0.0
2016-Dec-04 02:32N 51°57' E 003°59'0 0.0
2016-Dec-04 01:29N 51°57' E 003°59'0 0.0
2016-Dec-04 00:32N 51°57' E 003°59'0 0.0
2016-Dec-03 23:32N 51°57' E 003°59'0 0.0
2016-Dec-03 22:32N 51°57' E 003°59'0 0.0
2016-Dec-03 21:32N 51°57' E 003°59'0 0.0
2016-Dec-03 20:32N 51°57' E 003°59'0 0.0
2016-Dec-03 19:32N 51°57' E 003°59'0 0.0
2016-Dec-03 18:32N 51°57' E 003°59'0 0.0
2016-Dec-03 17:32N 51°57' E 003°59'0 0.0
2016-Dec-03 16:32N 51°57' E 003°59'0 0.0
2016-Dec-03 15:32N 51°57' E 003°59'0 0.0
2016-Dec-03 14:32N 51°57' E 003°59'0 0.0
2016-Dec-03 13:32N 51°57' E 003°59'0 0.0
2016-Dec-03 12:29N 51°57' E 003°59'0 0.0
2016-Dec-03 11:32N 51°57' E 003°59'0 0.0
2016-Dec-03 10:32N 51°57' E 003°59'0 0.0
2016-Dec-03 09:31N 51°57' E 003°59'0 0.0
2016-Dec-03 08:32N 51°57' E 003°59'0 0.0
2016-Dec-03 07:32N 51°57' E 003°59'0 0.5
2016-Dec-03 06:33N 51°57' E 003°60'2 2.0
2016-Dec-03 05:33N 51°58' E 004°03'4 3.9
2016-Dec-03 04:33N 52°00' E 003°58'1211.7
2016-Dec-03 03:33N 51°59' E 003°39'1615.2
2016-Dec-03 02:32N 51°54' E 003°15'2019.8
2016-Dec-03 01:32N 51°48' E 002°44'2020.3
2016-Dec-03 00:33N 51°35' E 002°20'2019.9
2016-Dec-02 23:33N 51°20' E 001°59'1918.7
2016-Dec-02 22:33N 51°06' E 001°40'1716.7
2016-Dec-02 21:33N 50°52' E 001°25'4916.2
2016-Dec-02 18:31N 50°22' E 000°23'1717.3
2016-Dec-02 17:33N 50°14' E 000°01'1818.3
2016-Dec-02 16:33N 49°56' W 000°06'1919.0
2016-Dec-02 15:33N 49°37' W 000°11'1312.9
2016-Dec-02 14:33N 49°29' E 000°05'3 3.1
2016-Dec-02 13:34N 49°28' E 000°09'0 0.0
2016-Dec-02 12:31N 49°28' E 000°09'0 0.0
2016-Dec-02 11:33N 49°28' E 000°09'0 0.0
2016-Dec-02 10:33N 49°28' E 000°09'0 0.0
2016-Dec-02 09:31N 49°28' E 000°09'0 0.0
2016-Dec-02 08:32N 49°28' E 000°09'0 0.0
2016-Dec-02 07:31N 49°28' E 000°09'0 0.0
2016-Dec-02 06:32N 49°28' E 000°09'0 0.0
2016-Dec-02 05:33N 49°28' E 000°09'0 0.0
2016-Dec-02 04:31N 49°28' E 000°09'0 0.0
2016-Dec-02 03:31N 49°28' E 000°09'0 0.0
2016-Dec-02 02:31N 49°28' E 000°09'0 0.0
2016-Dec-02 01:31N 49°28' E 000°09'0 0.0
2016-Dec-02 00:31N 49°28' E 000°09'0 0.0
2016-Dec-01 23:31N 49°28' E 000°09'0 0.0
2016-Dec-01 22:31N 49°28' E 000°09'0 0.0
2016-Dec-01 21:31N 49°28' E 000°09'0 0.0
2016-Dec-01 20:32N 49°28' E 000°09'0 0.0
2016-Dec-01 19:33N 49°28' E 000°09'0 0.0
2016-Dec-01 18:33N 49°28' E 000°09'0 0.0
2016-Dec-01 17:32N 49°28' E 000°09'0 0.0
2016-Dec-01 16:30N 49°28' E 000°09'0 0.0
2016-Dec-01 15:33N 49°28' E 000°09'0 0.0
2016-Dec-01 14:33N 49°28' E 000°09'0 0.0
2016-Dec-01 13:32N 49°28' E 000°09'2 2.5
2016-Dec-01 12:33N 49°29' E 000°06'1110.6
2016-Dec-01 11:33N 49°32' W 000°10'8 7.9
2016-Dec-01 10:33N 49°35' W 000°21'9 8.7
2016-Dec-01 09:33N 49°38' W 000°34'1615.5
2016-Dec-01 08:33N 49°44' W 000°56'1918.9
2016-Dec-01 07:33N 49°50' W 001°23'1818.2
2016-Dec-01 06:33N 49°52' W 001°52'3315.7
2016-Dec-01 04:29N 49°50' W 002°42'1415.1
2016-Dec-01 03:33N 49°47' W 003°03'1514.9
2016-Dec-01 02:33N 49°46' W 003°26'1514.6
2016-Dec-01 01:30N 49°45' W 003°50'1414.4
2016-Dec-01 00:32N 49°44' W 004°11'1514.3
2016-Nov-30 23:29N 49°43' W 004°35'1414.2
2016-Nov-30 22:30N 49°42' W 004°56'1715.0
2016-Nov-30 21:22N 49°41' W 005°23'6318.8
2016-Nov-30 18:00N 49°36' W 007°00'10918.2 120 / 181030.710.8 10.7 4.611.0
2016-Nov-30 12:00N 49°48' W 009°48'11619.4 110 / 231031.810.8 12.2 4.912.0
2016-Nov-30 06:00N 49°48' W 012°48'21718.1 100 / 171031.310.8 10.6 4.112.0
2016-Nov-29 18:00N 49°48' W 018°24'7512.5 110 / 171030.910.8 12.3 7.213.0
2016-Nov-29 12:00N 49°36' W 020°18'14524.1 110 / 131029.810.8 14.510.314.0
2016-Nov-29 06:00N 49°24' W 024°00'9916.4 020 / 221029.310.8 10.8 8.712.0
2016-Nov-29 00:00N 49°12' W 026°30'9616.0 040 / 151030.5 5.4 11.1 12.0
2016-Nov-28 18:00N 48°54' W 028°54'11018.3 030 / 181030.610.8 13.0 5.2 9.5
2016-Nov-28 12:00N 48°30' W 031°36'   010 / 141031.210.8 9.6-0.612.0
Track history (hours):
 
Tides and Currents Weather Stations Pressure Air Temp Water Temp Dewpoint Dewpoint Depression Visibility Wind Speed Wind Dir Waves Ship Positions

Colombo Express

Last reported at 2016-Dec-08 04:08 UTC. Time now 2016-Dec-08 05:58 UTC.
Position N 53°39' E 005°19'.

Length 335.5 m; beam 42.8 m; draft 14.6 m.

Type: Ship. MMSI: 211433000.

Date/timePositionNaut miles runAvg speedWind from/ knotsBaromVisibWave heightAir tempDewpointWater temp
2016-Dec-08 04:08N 53°39' E 005°19'2614.0
2016-Dec-08 02:16N 53°45' E 006°01'6413.5
2016-Dec-07 21:33N 54°02' E 007°46'1514.6
2016-Dec-07 20:33N 54°01' E 008°11'1515.6
2016-Dec-07 19:34N 53°58' E 008°36'1312.5
2016-Dec-07 18:34N 53°51' E 008°54'1110.9
2016-Dec-07 17:33N 53°53' E 009°12'1111.3
2016-Dec-07 16:33N 53°45' E 009°25'1010.0
2016-Dec-07 15:34N 53°36' E 009°35'9 8.7
2016-Dec-07 14:33N 53°33' E 009°48'5 5.4
2016-Dec-07 13:33N 53°30' E 009°56'0 0.1
2016-Dec-07 12:33N 53°30' E 009°56'0 0.0
2016-Dec-07 11:33N 53°30' E 009°56'0 0.0
2016-Dec-07 10:33N 53°30' E 009°56'0 0.0
2016-Dec-07 09:33N 53°30' E 009°56'0 0.0
2016-Dec-07 08:33N 53°30' E 009°56'0 0.0
2016-Dec-07 07:33N 53°30' E 009°56'0 0.0
2016-Dec-07 06:33N 53°30' E 009°56'0 0.0
2016-Dec-07 05:33N 53°30' E 009°56'0 0.0
2016-Dec-07 04:33N 53°30' E 009°56'0 0.0
2016-Dec-07 03:33N 53°30' E 009°56'0 0.0
2016-Dec-07 02:33N 53°30' E 009°56'0 0.0
2016-Dec-07 01:33N 53°30' E 009°56'0 0.0
2016-Dec-07 00:33N 53°30' E 009°56'0 0.0
2016-Dec-06 23:33N 53°30' E 009°56'0 0.0
2016-Dec-06 22:33N 53°30' E 009°56'0 0.0
2016-Dec-06 21:33N 53°30' E 009°56'0 0.0
2016-Dec-06 20:33N 53°30' E 009°56'0 0.0
2016-Dec-06 18:33N 53°30' E 009°56'0 0.0
2016-Dec-06 17:30N 53°30' E 009°56'0 0.0
2016-Dec-06 16:33N 53°30' E 009°56'0 0.0
2016-Dec-06 15:33N 53°30' E 009°56'0 0.0
2016-Dec-06 14:33N 53°30' E 009°56'0 0.0
2016-Dec-06 13:33N 53°30' E 009°56'0 0.0
2016-Dec-06 12:33N 53°30' E 009°56'0 0.0
2016-Dec-06 11:33N 53°30' E 009°56'0 0.0
2016-Dec-06 10:33N 53°30' E 009°56'0 0.0
2016-Dec-06 09:33N 53°30' E 009°56'0 0.0
2016-Dec-06 08:33N 53°30' E 009°56'0 0.0
2016-Dec-06 07:33N 53°30' E 009°56'0 0.0
2016-Dec-06 06:30N 53°30' E 009°56'0 0.0
2016-Dec-06 05:33N 53°30' E 009°56'0 0.0
2016-Dec-06 04:33N 53°30' E 009°56'0 0.0
2016-Dec-06 03:33N 53°30' E 009°56'0 0.0
2016-Dec-06 02:33N 53°30' E 009°56'0 0.0
2016-Dec-06 01:33N 53°30' E 009°56'0 0.0
2016-Dec-06 00:33N 53°30' E 009°56'0 0.0
2016-Dec-05 23:33N 53°30' E 009°56'0 0.0
2016-Dec-05 22:33N 53°30' E 009°56'0 0.0
2016-Dec-05 21:33N 53°30' E 009°56'0 0.0
2016-Dec-05 20:34N 53°30' E 009°56'1 1.5
2016-Dec-05 19:34N 53°32' E 009°56'9 9.5
2016-Dec-05 18:34N 53°34' E 009°41'1212.5
2016-Dec-05 17:33N 53°44' E 009°27'1514.7
2016-Dec-05 16:33N 53°53' E 009°08'1414.1
2016-Dec-05 15:33N 53°52' E 008°44'1615.8
2016-Dec-05 14:33N 53°59' E 008°21'1111.0
2016-Dec-05 13:34N 53°59' E 008°02'5 5.0
2016-Dec-05 12:33N 53°58' E 007°53'10 9.8
2016-Dec-05 11:33N 53°56' E 007°37'1110.2
2016-Dec-05 10:31N 53°53' E 007°20'19 9.9
2016-Dec-05 08:33N 53°49' E 006°48'9 9.5
2016-Dec-05 07:33N 53°47' E 006°32'1310.8
2016-Dec-05 06:22N 53°43' E 006°11'911.7
2016-Dec-05 05:33N 53°40' E 005°56'1513.0
2016-Dec-05 04:26N 53°36' E 005°33'1213.7
2016-Dec-05 03:33N 53°31' E 005°14'1413.6
2016-Dec-05 02:33N 53°26' E 004°53'1313.0
2016-Dec-05 01:33N 53°18' E 004°36'1414.2
2016-Dec-05 00:33N 53°05' E 004°26'1414.1
2016-Dec-04 23:33N 52°52' E 004°15'1414.0
2016-Dec-04 22:34N 52°41' E 004°02'1414.0
2016-Dec-04 21:33N 52°28' E 003°54'1514.8
2016-Dec-04 20:33N 52°13' E 003°54'1313.1
2016-Dec-04 19:34N 52°00' E 003°59'2 1.9
2016-Dec-04 18:33N 51°59' E 004°00'2 1.7
2016-Dec-04 17:33N 51°57' E 003°59'0 0.0
2016-Dec-04 16:32N 51°57' E 003°59'0 0.0
2016-Dec-04 15:29N 51°57' E 003°59'0 0.0
2016-Dec-04 14:29N 51°57' E 003°59'0 0.0
2016-Dec-04 13:32N 51°57' E 003°59'0 0.0
2016-Dec-04 12:32N 51°57' E 003°59'0 0.0
2016-Dec-04 11:32N 51°57' E 003°59'0 0.0
2016-Dec-04 10:32N 51°57' E 003°59'0 0.0
2016-Dec-04 09:32N 51°57' E 003°59'0 0.0
2016-Dec-04 08:32N 51°57' E 003°59'0 0.0
2016-Dec-04 07:32N 51°57' E 003°59'0 0.0
2016-Dec-04 06:32N 51°57' E 003°59'0 0.0
2016-Dec-04 05:32N 51°57' E 003°59'0 0.0
2016-Dec-04 04:32N 51°57' E 003°59'0 0.0
2016-Dec-04 03:32N 51°57' E 003°59'0 0.0
2016-Dec-04 02:32N 51°57' E 003°59'0 0.0
2016-Dec-04 01:29N 51°57' E 003°59'0 0.0
2016-Dec-04 00:32N 51°57' E 003°59'0 0.0
2016-Dec-03 23:32N 51°57' E 003°59'0 0.0
2016-Dec-03 22:32N 51°57' E 003°59'0 0.0
2016-Dec-03 21:32N 51°57' E 003°59'0 0.0
2016-Dec-03 20:32N 51°57' E 003°59'0 0.0
2016-Dec-03 19:32N 51°57' E 003°59'0 0.0
2016-Dec-03 18:32N 51°57' E 003°59'0 0.0
2016-Dec-03 17:32N 51°57' E 003°59'0 0.0
2016-Dec-03 16:32N 51°57' E 003°59'0 0.0
2016-Dec-03 15:32N 51°57' E 003°59'0 0.0
2016-Dec-03 14:32N 51°57' E 003°59'0 0.0
2016-Dec-03 13:32N 51°57' E 003°59'0 0.0
2016-Dec-03 12:29N 51°57' E 003°59'0 0.0
2016-Dec-03 11:32N 51°57' E 003°59'0 0.0
2016-Dec-03 10:32N 51°57' E 003°59'0 0.0
2016-Dec-03 09:31N 51°57' E 003°59'0 0.0
2016-Dec-03 08:32N 51°57' E 003°59'0 0.0
2016-Dec-03 07:32N 51°57' E 003°59'0 0.5
2016-Dec-03 06:33N 51°57' E 003°60'2 2.0
2016-Dec-03 05:33N 51°58' E 004°03'4 3.9
2016-Dec-03 04:33N 52°00' E 003°58'1211.7
2016-Dec-03 03:33N 51°59' E 003°39'1615.2
2016-Dec-03 02:32N 51°54' E 003°15'2019.8
2016-Dec-03 01:32N 51°48' E 002°44'2020.3
2016-Dec-03 00:33N 51°35' E 002°20'2019.9
2016-Dec-02 23:33N 51°20' E 001°59'1918.7
2016-Dec-02 22:33N 51°06' E 001°40'1716.7
2016-Dec-02 21:33N 50°52' E 001°25'4916.2
2016-Dec-02 18:31N 50°22' E 000°23'1717.3
2016-Dec-02 17:33N 50°14' E 000°01'1818.3
2016-Dec-02 16:33N 49°56' W 000°06'1919.0
2016-Dec-02 15:33N 49°37' W 000°11'1312.9
2016-Dec-02 14:33N 49°29' E 000°05'3 3.1
2016-Dec-02 13:34N 49°28' E 000°09'0 0.0
2016-Dec-02 12:31N 49°28' E 000°09'0 0.0
2016-Dec-02 11:33N 49°28' E 000°09'0 0.0
2016-Dec-02 10:33N 49°28' E 000°09'0 0.0
2016-Dec-02 09:31N 49°28' E 000°09'0 0.0
2016-Dec-02 08:32N 49°28' E 000°09'0 0.0
2016-Dec-02 07:31N 49°28' E 000°09'0 0.0
2016-Dec-02 06:32N 49°28' E 000°09'0 0.0
2016-Dec-02 05:33N 49°28' E 000°09'0 0.0
2016-Dec-02 04:31N 49°28' E 000°09'0 0.0
2016-Dec-02 03:31N 49°28' E 000°09'0 0.0
2016-Dec-02 02:31N 49°28' E 000°09'0 0.0
2016-Dec-02 01:31N 49°28' E 000°09'0 0.0
2016-Dec-02 00:31N 49°28' E 000°09'0 0.0
2016-Dec-01 23:31N 49°28' E 000°09'0 0.0
2016-Dec-01 22:31N 49°28' E 000°09'0 0.0
2016-Dec-01 21:31N 49°28' E 000°09'0 0.0
2016-Dec-01 20:32N 49°28' E 000°09'0 0.0
2016-Dec-01 19:33N 49°28' E 000°09'0 0.0
2016-Dec-01 18:33N 49°28' E 000°09'0 0.0
2016-Dec-01 17:32N 49°28' E 000°09'0 0.0
2016-Dec-01 16:30N 49°28' E 000°09'0 0.0
2016-Dec-01 15:33N 49°28' E 000°09'0 0.0
2016-Dec-01 14:33N 49°28' E 000°09'0 0.0
2016-Dec-01 13:32N 49°28' E 000°09'2 2.5
2016-Dec-01 12:33N 49°29' E 000°06'1110.6
2016-Dec-01 11:33N 49°32' W 000°10'8 7.9
2016-Dec-01 10:33N 49°35' W 000°21'9 8.7
2016-Dec-01 09:33N 49°38' W 000°34'1615.5
2016-Dec-01 08:33N 49°44' W 000°56'1918.9
2016-Dec-01 07:33N 49°50' W 001°23'1818.2
2016-Dec-01 06:33N 49°52' W 001°52'3315.7
2016-Dec-01 04:29N 49°50' W 002°42'1415.1
2016-Dec-01 03:33N 49°47' W 003°03'1514.9
2016-Dec-01 02:33N 49°46' W 003°26'1514.6
2016-Dec-01 01:30N 49°45' W 003°50'1414.4
2016-Dec-01 00:32N 49°44' W 004°11'1514.3
2016-Nov-30 23:29N 49°43' W 004°35'1414.2
2016-Nov-30 22:30N 49°42' W 004°56'1715.0
2016-Nov-30 21:22N 49°41' W 005°23'6318.8
2016-Nov-30 18:00N 49°36' W 007°00'10918.2 120 / 181030.710.8 10.7 4.611.0
2016-Nov-30 12:00N 49°48' W 009°48'11619.4 110 / 231031.810.8 12.2 4.912.0
2016-Nov-30 06:00N 49°48' W 012°48'21718.1 100 / 171031.310.8 10.6 4.112.0
2016-Nov-29 18:00N 49°48' W 018°24'7512.5 110 / 171030.910.8 12.3 7.213.0
2016-Nov-29 12:00N 49°36' W 020°18'14524.1 110 / 131029.810.8 14.510.314.0
2016-Nov-29 06:00N 49°24' W 024°00'9916.4 020 / 221029.310.8 10.8 8.712.0
2016-Nov-29 00:00N 49°12' W 026°30'9616.0 040 / 151030.5 5.4 11.1 12.0
2016-Nov-28 18:00N 48°54' W 028°54'11018.3 030 / 181030.610.8 13.0 5.2 9.5
2016-Nov-28 12:00N 48°30' W 031°36'   010 / 141031.210.8 9.6-0.612.0

Dump ship's entire track history